Time;durP1;ratioP1;P1;durP2;ratioP2;P2;SDS_P1;SDS_P2;PMS_P1;PMS_P2;Temp;Humidity;BMP_temperature;BMP_pressure;BME280_temperature;BME280_humidity;BME280_pressure;Samples;Min_cycle;Max_cycle;Signal;HPM_P1;HPM_P2
2023/05/20 00:00:56;;;;;;;28.40;19.65;;;11.30;1.00;;;;;;4994555;28;20038;-63
2023/05/20 00:03:21;;;;;;;25.40;19.40;;;11.30;74.30;;;;;;4995809;28;20153;-63
2023/05/20 00:05:47;;;;;;;29.88;20.45;;;11.40;99.90;;;;;;4995853;28;20082;-63
2023/05/20 00:08:13;;;;;;;29.58;20.08;;;11.30;99.90;;;;;;4995748;28;20046;-63
2023/05/20 00:10:40;;;;;;;29.08;20.15;;;11.40;99.90;;;;;;4994978;28;20397;-63
2023/05/20 00:13:06;;;;;;;22.67;18.75;;;11.60;99.90;;;;;;4991848;28;20042;-63
2023/05/20 00:15:35;;;;;;;28.67;20.33;;;11.30;99.90;;;;;;4992534;28;20035;-63
2023/05/20 00:18:01;;;;;;;27.95;19.98;;;11.30;99.90;;;;;;4992632;28;20046;-63
2023/05/20 00:20:27;;;;;;;28.42;20.10;;;11.10;99.90;;;;;;4992463;28;20093;-63
2023/05/20 00:22:52;;;;;;;29.25;19.15;;;11.10;1.00;;;;;;4991663;28;20145;-62
2023/05/20 00:25:18;;;;;;;26.88;18.20;;;11.10;1.00;;;;;;4992149;28;20038;-63
2023/05/20 00:27:44;;;;;;;27.75;19.63;;;11.10;1.00;;;;;;4990652;28;20052;-63
2023/05/20 00:30:10;;;;;;;28.08;19.67;;;11.00;1.00;;;;;;4990879;28;20133;-63
2023/05/20 00:32:35;;;;;;;22.40;19.30;;;11.10;1.00;;;;;;4992061;28;20093;-63
2023/05/20 00:35:02;;;;;;;24.90;18.33;;;11.00;4.40;;;;;;4992166;28;20528;-63
2023/05/20 00:37:27;;;;;;;22.52;18.58;;;11.00;40.70;;;;;;4992124;28;20048;-63
2023/05/20 00:39:53;;;;;;;26.58;19.23;;;11.00;79.10;;;;;;4991591;28;20399;-63
2023/05/20 00:42:25;;;;;;;23.65;19.08;;;11.00;99.90;;;;;;4992424;28;20034;-63
2023/05/20 00:44:52;;;;;;;25.65;18.65;;;11.00;99.90;;;;;;4983282;28;20089;-63
2023/05/20 00:47:19;;;;;;;25.90;18.90;;;11.00;99.90;;;;;;4991714;28;20116;-63
2023/05/20 00:49:46;;;;;;;21.80;19.27;;;12.50;99.90;;;;;;4990696;28;20444;-63
2023/05/20 00:52:13;;;;;;;25.55;19.05;;;10.80;99.90;;;;;;4990807;28;20508;-63
2023/05/20 00:54:40;;;;;;;24.65;19.40;;;11.30;99.90;;;;;;4989828;28;20046;-63
2023/05/20 00:57:06;;;;;;;27.33;19.92;;;10.80;99.90;;;;;;4991966;28;20046;-62
2023/05/20 00:59:36;;;;;;;27.38;18.67;;;10.80;99.90;;;;;;4991707;28;20124;-63
2023/05/20 01:02:05;;;;;;;26.60;19.38;;;10.80;1.00;;;;;;4988710;28;20042;-63
2023/05/20 01:04:32;;;;;;;22.30;18.98;;;10.90;1.00;;;;;;4992078;28;20069;-63
2023/05/20 01:06:59;;;;;;;26.05;19.08;;;11.10;1.00;;;;;;4991590;28;20038;-63
2023/05/20 01:09:26;;;;;;;28.15;19.38;;;10.90;17.80;;;;;;4991299;28;20097;-63
2023/05/20 01:12:28;;;;;;;25.50;19.38;;;10.90;99.90;;;;;;4991098;28;20730;-63
2023/05/20 01:15:02;;;;;;;23.30;19.77;;;10.90;99.90;;;;;;4984792;28;20528;-63
2023/05/20 01:17:31;;;;;;;25.95;19.92;;;11.50;99.90;;;;;;4990212;28;20125;-63
2023/05/20 01:19:59;;;;;;;26.23;19.27;;;10.90;99.90;;;;;;4992193;28;20759;-62
2023/05/20 01:22:26;;;;;;;27.55;19.77;;;11.00;1.00;;;;;;4990039;28;20050;-63
2023/05/20 01:24:52;;;;;;;25.00;19.63;;;10.80;1.00;;;;;;4990856;28;20042;-63
2023/05/20 01:27:19;;;;;;;25.15;19.65;;;11.00;1.00;;;;;;4990339;28;20121;-63
2023/05/20 01:29:49;;;;;;;26.90;21.10;;;11.00;88.20;;;;;;4991619;28;20377;-63
2023/05/20 01:32:26;;;;;;;23.80;20.50;;;11.00;99.90;;;;;;4988742;28;20053;-63
2023/05/20 01:34:53;;;;;;;27.25;19.48;;;10.90;99.90;;;;;;4991151;28;20092;-63
2023/05/20 01:37:20;;;;;;;29.05;19.73;;;11.00;99.90;;;;;;4990349;28;20511;-63
2023/05/20 01:39:48;;;;;;;23.95;19.48;;;11.10;1.00;;;;;;4990894;28;20047;-63
2023/05/20 01:42:15;;;;;;;23.85;19.40;;;11.00;1.00;;;;;;4991035;28;20038;-63
2023/05/20 01:44:41;;;;;;;25.98;19.90;;;11.20;99.90;;;;;;4990787;28;20389;-63
2023/05/20 01:47:06;;;;;;;27.23;20.00;;;11.00;99.90;;;;;;4989967;28;20046;-63
2023/05/20 01:49:32;;;;;;;28.10;19.52;;;11.30;99.90;;;;;;4991183;28;20050;-63
2023/05/20 01:51:57;;;;;;;26.10;19.60;;;11.20;1.00;;;;;;4990416;28;20415;-63
2023/05/20 01:54:23;;;;;;;30.88;19.83;;;11.30;1.00;;;;;;4990500;28;20074;-63
2023/05/20 01:56:49;;;;;;;29.38;20.70;;;11.00;76.50;;;;;;4990006;28;20034;-63
2023/05/20 01:59:15;;;;;;;24.63;19.63;;;11.10;99.90;;;;;;4990426;28;20362;-63
2023/05/20 02:01:40;;;;;;;24.77;19.10;;;11.00;99.90;;;;;;4988885;28;20050;-63
2023/05/20 02:04:06;;;;;;;27.25;20.08;;;11.00;99.90;;;;;;4990645;28;20069;-63
2023/05/20 02:06:31;;;;;;;28.33;19.52;;;10.90;99.90;;;;;;4990401;28;20769;-63
2023/05/20 02:08:57;;;;;;;28.35;19.00;;;10.90;1.00;;;;;;4990794;28;20030;-63
2023/05/20 02:11:22;;;;;;;29.23;19.88;;;10.90;55.70;;;;;;4989990;28;20118;-62
2023/05/20 02:13:50;;;;;;;25.13;19.02;;;11.00;99.90;;;;;;4990398;28;20077;-63
2023/05/20 02:16:15;;;;;;;24.77;18.88;;;11.00;99.90;;;;;;4989950;28;20087;-63
2023/05/20 02:18:41;;;;;;;26.20;18.92;;;11.00;1.00;;;;;;4990629;28;20109;-63
2023/05/20 02:21:07;;;;;;;26.52;20.33;;;10.90;99.90;;;;;;4990226;28;20821;-63
2023/05/20 02:23:33;;;;;;;26.13;20.27;;;11.60;99.90;;;;;;4990730;28;20048;-63
2023/05/20 02:25:59;;;;;;;31.80;20.08;;;10.80;1.00;;;;;;4990330;28;20049;-63
2023/05/20 02:28:24;;;;;;;31.15;19.35;;;11.10;1.00;;;;;;4987304;28;20030;-63
2023/05/20 02:30:50;;;;;;;29.30;19.77;;;10.80;50.20;;;;;;4990132;28;20042;-63
2023/05/20 02:33:16;;;;;;;35.47;19.92;;;11.10;99.90;;;;;;4990220;28;20397;-63
2023/05/20 02:35:42;;;;;;;30.83;19.48;;;11.20;99.90;;;;;;4987806;28;20046;-63
2023/05/20 02:38:07;;;;;;;30.35;21.08;;;10.90;99.90;;;;;;4990222;28;20366;-63
2023/05/20 02:40:33;;;;;;;28.80;20.08;;;11.30;99.90;;;;;;4990064;28;20493;-63
2023/05/20 02:43:00;;;;;;;27.15;20.77;;;11.00;99.90;;;;;;4989749;28;20042;-63
2023/05/20 02:45:26;;;;;;;30.90;19.38;;;11.00;99.90;;;;;;4990035;28;20053;-63
2023/05/20 02:47:51;;;;;;;30.20;20.55;;;11.20;99.90;;;;;;4989016;28;20050;-63
2023/05/20 02:50:17;;;;;;;29.45;19.63;;;11.10;99.90;;;;;;4988150;28;20077;-63
2023/05/20 02:52:44;;;;;;;31.10;20.42;;;11.20;99.90;;;;;;5003884;28;20527;-63
2023/05/20 02:55:10;;;;;;;29.98;19.30;;;11.10;99.90;;;;;;4988604;28;20050;-63
2023/05/20 02:57:39;;;;;;;28.33;19.85;;;11.20;99.90;;;;;;4989701;28;20042;-63
2023/05/20 03:00:12;;;;;;;36.40;19.88;;;11.10;99.90;;;;;;4989726;28;20049;-63
2023/05/20 03:02:38;;;;;;;29.23;18.50;;;11.40;99.90;;;;;;4989859;28;20034;-63
2023/05/20 03:05:04;;;;;;;33.42;20.08;;;11.40;99.90;;;;;;4990082;28;20154;-63
2023/05/20 03:07:30;;;;;;;30.35;19.40;;;11.40;99.90;;;;;;4989502;28;20047;-63
2023/05/20 03:09:57;;;;;;;28.15;18.58;;;11.30;99.90;;;;;;4986190;28;20053;-63
2023/05/20 03:12:25;;;;;;;27.52;18.98;;;11.20;99.90;;;;;;4973160;28;20353;-63
2023/05/20 03:14:54;;;;;;;31.23;19.40;;;11.10;99.90;;;;;;4990484;28;20051;-63
2023/05/20 03:17:20;;;;;;;32.95;18.88;;;11.10;99.90;;;;;;4989406;28;20084;-63
2023/05/20 03:19:45;;;;;;;31.58;17.95;;;11.00;99.90;;;;;;4989926;28;20081;-63
2023/05/20 03:22:11;;;;;;;29.92;18.83;;;11.30;99.90;;;;;;4970826;28;20041;-65
2023/05/20 03:24:37;;;;;;;31.13;19.58;;;11.30;99.90;;;;;;4988330;28;20469;-63
2023/05/20 03:27:03;;;;;;;24.17;17.98;;;11.10;99.90;;;;;;4988589;28;20046;-63
2023/05/20 03:29:28;;;;;;;28.13;18.42;;;11.20;99.90;;;;;;4989914;28;20038;-63
2023/05/20 03:31:54;;;;;;;29.48;19.15;;;11.20;99.90;;;;;;4990017;28;20129;-63
2023/05/20 03:34:19;;;;;;;26.95;19.00;;;11.20;99.90;;;;;;4989258;28;20034;-63
2023/05/20 03:36:45;;;;;;;30.38;19.75;;;10.90;99.90;;;;;;4989141;28;20027;-63
2023/05/20 03:39:11;;;;;;;26.80;19.63;;;10.80;99.90;;;;;;4989651;28;20050;-63
2023/05/20 03:41:36;;;;;;;27.70;18.83;;;11.40;99.90;;;;;;4989617;28;20496;-63
2023/05/20 03:44:02;;;;;;;30.95;19.73;;;10.90;99.90;;;;;;4987958;28;20145;-63
2023/05/20 03:46:29;;;;;;;27.95;21.30;;;10.70;99.90;;;;;;4988434;28;20145;-63
2023/05/20 03:48:55;;;;;;;25.52;20.20;;;11.20;99.90;;;;;;4983166;28;20034;-63
2023/05/20 03:51:21;;;;;;;32.15;20.95;;;11.00;99.90;;;;;;4989975;28;20039;-63
2023/05/20 03:53:47;;;;;;;29.08;20.77;;;10.80;99.90;;;;;;4992968;28;20101;-63
2023/05/20 03:56:12;;;;;;;29.70;19.52;;;10.80;99.90;;;;;;4992780;28;20488;-64
2023/05/20 03:58:38;;;;;;;27.02;19.75;;;11.10;99.90;;;;;;4992699;28;20042;-63
2023/05/20 04:01:03;;;;;;;32.92;19.38;;;10.80;99.90;;;;;;4993058;28;20037;-63
2023/05/20 04:03:30;;;;;;;26.25;19.30;;;10.80;99.90;;;;;;4992556;28;20030;-63
2023/05/20 04:05:55;;;;;;;28.52;20.55;;;11.20;99.90;;;;;;4992874;28;20180;-63
2023/05/20 04:08:24;;;;;;;31.05;20.48;;;11.00;99.90;;;;;;4991882;28;20575;-63
2023/05/20 04:10:54;;;;;;;28.52;20.10;;;11.20;99.90;;;;;;4992699;28;20045;-63
2023/05/20 04:13:20;;;;;;;30.77;20.02;;;11.00;99.90;;;;;;4992587;28;20042;-64
2023/05/20 04:15:46;;;;;;;28.08;20.48;;;11.20;99.90;;;;;;4992673;28;20050;-63
2023/05/20 04:18:12;;;;;;;24.23;18.42;;;10.80;99.90;;;;;;4990125;28;20039;-63
2023/05/20 04:20:40;;;;;;;22.15;18.30;;;11.10;99.90;;;;;;4991538;28;20042;-63
2023/05/20 04:23:05;;;;;;;25.73;19.38;;;10.80;99.90;;;;;;4992521;28;20065;-63
2023/05/20 04:25:32;;;;;;;26.17;18.17;;;10.90;99.90;;;;;;4992506;28;20051;-63
2023/05/20 04:27:58;;;;;;;31.08;19.02;;;10.80;99.90;;;;;;4991508;28;20198;-63
2023/05/20 04:30:24;;;;;;;24.92;18.83;;;11.20;99.90;;;;;;4974356;28;20038;-63
2023/05/20 04:32:51;;;;;;;22.35;17.70;;;11.10;99.90;;;;;;4992713;28;20096;-63
2023/05/20 04:35:17;;;;;;;24.90;19.02;;;10.90;99.90;;;;;;4993004;28;20039;-63
2023/05/20 04:37:48;;;;;;;21.52;18.02;;;11.20;99.90;;;;;;4992359;28;20049;-63
2023/05/20 04:40:14;;;;;;;25.15;17.60;;;11.00;99.90;;;;;;4992150;28;20034;-63
2023/05/20 04:42:39;;;;;;;22.02;18.10;;;11.00;99.90;;;;;;4992455;28;20524;-63
2023/05/20 04:45:07;;;;;;;27.65;18.92;;;11.40;99.90;;;;;;4989408;28;20046;-63
2023/05/20 04:47:37;;;;;;;26.00;18.38;;;11.60;99.90;;;;;;4991851;28;20068;-63
2023/05/20 04:50:07;;;;;;;22.40;17.98;;;11.20;99.90;;;;;;4990832;28;20065;-63
2023/05/20 04:52:33;;;;;;;22.67;18.02;;;11.60;99.90;;;;;;4992125;28;20038;-63
2023/05/20 04:55:00;;;;;;;23.75;18.10;;;11.60;99.90;;;;;;4991750;28;20507;-63
2023/05/20 04:57:26;;;;;;;22.02;17.80;;;11.60;99.90;;;;;;4991739;28;20042;-63
2023/05/20 04:59:52;;;;;;;22.13;18.00;;;11.70;99.90;;;;;;4990006;28;20088;-63
2023/05/20 05:02:17;;;;;;;23.05;17.65;;;11.40;99.90;;;;;;4992044;28;20050;-63
2023/05/20 05:04:43;;;;;;;24.92;17.08;;;11.90;99.90;;;;;;4991369;28;20514;-59
2023/05/20 05:07:08;;;;;;;24.20;17.90;;;11.60;99.90;;;;;;4990438;28;20073;-59
2023/05/20 05:09:34;;;;;;;24.30;17.92;;;11.90;99.90;;;;;;4989654;28;20149;-59
2023/05/20 05:12:00;;;;;;;21.50;17.70;;;11.90;99.90;;;;;;4991192;28;20088;-59
2023/05/20 05:14:25;;;;;;;23.67;17.85;;;11.90;99.90;;;;;;4990796;28;20129;-59
2023/05/20 05:16:51;;;;;;;21.58;16.75;;;11.90;99.90;;;;;;4991399;28;20035;-59
2023/05/20 05:19:16;;;;;;;24.05;17.02;;;12.00;99.90;;;;;;4990693;28;20042;-59
2023/05/20 05:21:42;;;;;;;18.23;15.85;;;12.20;99.90;;;;;;4991386;28;20062;-59
2023/05/20 05:24:07;;;;;;;18.05;15.30;;;12.50;99.90;;;;;;4990639;28;20070;-59
2023/05/20 05:26:33;;;;;;;17.17;15.45;;;12.40;99.90;;;;;;4990378;28;20097;-59
2023/05/20 05:28:58;;;;;;;22.77;14.80;;;12.80;99.90;;;;;;4990594;28;20034;-59
2023/05/20 05:31:24;;;;;;;20.00;15.23;;;12.50;99.90;;;;;;4991272;28;20049;-59
2023/05/20 05:33:50;;;;;;;17.58;14.00;;;12.70;99.90;;;;;;4990367;28;20069;-59
2023/05/20 05:36:16;;;;;;;16.33;13.93;;;12.80;99.90;;;;;;4991383;28;20377;-59
2023/05/20 05:38:43;;;;;;;17.13;13.30;;;12.60;99.90;;;;;;4990397;28;20035;-59
2023/05/20 05:41:08;;;;;;;17.88;12.60;;;12.80;99.90;;;;;;4990850;28;20120;-59
2023/05/20 05:43:34;;;;;;;13.13;11.65;;;12.90;99.90;;;;;;4989034;28;20050;-59
2023/05/20 05:46:00;;;;;;;14.02;10.75;;;12.90;99.90;;;;;;4977407;28;20515;-59
2023/05/20 05:48:25;;;;;;;13.70;10.23;;;13.00;99.90;;;;;;4985850;28;20076;-58
2023/05/20 05:50:51;;;;;;;20.27;12.65;;;13.10;99.90;;;;;;4990785;28;20038;-58
2023/05/20 05:53:17;;;;;;;13.25;10.55;;;13.10;99.90;;;;;;4987655;28;20046;-59
2023/05/20 05:55:44;;;;;;;16.02;10.15;;;13.50;99.90;;;;;;4987598;28;20085;-58
2023/05/20 05:58:10;;;;;;;12.70;9.95;;;13.10;76.10;;;;;;4990790;28;20508;-59
2023/05/20 06:00:35;;;;;;;14.23;11.75;;;13.10;99.90;;;;;;4990198;28;20088;-59
2023/05/20 06:03:01;;;;;;;11.48;10.27;;;13.30;1.00;;;;;;4990287;28;20026;-59
2023/05/20 06:05:26;;;;;;;11.07;8.52;;;13.30;99.90;;;;;;4990079;28;20156;-58
2023/05/20 06:07:52;;;;;;;13.80;10.82;;;13.30;99.90;;;;;;4990007;28;20044;-59
2023/05/20 06:10:18;;;;;;;10.57;9.43;;;13.40;99.90;;;;;;4988063;28;20053;-58
2023/05/20 06:12:43;;;;;;;12.95;9.43;;;13.70;99.90;;;;;;4990041;28;20161;-58
2023/05/20 06:15:09;;;;;;;13.30;10.10;;;13.50;1.00;;;;;;4989349;28;20038;-59
2023/05/20 06:17:35;;;;;;;8.98;8.07;;;13.50;99.90;;;;;;4989981;28;20485;-59
2023/05/20 06:20:00;;;;;;;9.45;6.82;;;13.60;99.90;;;;;;4990412;28;20521;-58
2023/05/20 06:22:26;;;;;;;12.77;8.23;;;14.30;94.30;;;;;;4988958;28;20112;-59
2023/05/20 06:24:52;;;;;;;12.65;6.80;;;13.80;1.00;;;;;;4989381;28;20038;-59
2023/05/20 06:27:18;;;;;;;9.10;5.38;;;13.80;99.90;;;;;;4989944;28;20073;-59
2023/05/20 06:29:44;;;;;;;6.65;5.63;;;13.90;1.00;;;;;;4990482;28;20110;-59
2023/05/20 06:32:09;;;;;;;10.50;5.43;;;13.90;99.90;;;;;;4990785;28;20046;-59
2023/05/20 06:34:35;;;;;;;7.25;4.80;;;14.00;99.90;;;;;;4989528;28;20044;-59
2023/05/20 06:37:01;;;;;;;8.30;5.68;;;14.00;99.90;;;;;;4990065;28;20074;-59
2023/05/20 06:39:26;;;;;;;8.55;5.72;;;13.90;13.10;;;;;;4989431;28;20479;-59
2023/05/20 06:41:52;;;;;;;7.22;6.50;;;13.80;1.00;;;;;;4990462;28;20140;-59
2023/05/20 06:44:18;;;;;;;9.45;7.97;;;13.70;1.00;;;;;;4987826;28;20041;-60
2023/05/20 06:46:44;;;;;;;8.65;7.82;;;13.60;1.00;;;;;;4989782;28;20058;-59
2023/05/20 06:49:09;;;;;;;8.80;8.00;;;13.60;1.00;;;;;;4990012;28;20500;-59
2023/05/20 06:51:35;;;;;;;10.45;9.40;;;13.70;1.00;;;;;;4989205;28;20400;-60
2023/05/20 06:54:01;;;;;;;11.07;9.93;;;13.70;1.00;;;;;;4980028;28;20038;-57
2023/05/20 06:56:26;;;;;;;9.13;8.13;;;13.70;1.00;;;;;;5000766;28;20046;-59
2023/05/20 06:58:52;;;;;;;11.10;7.90;;;13.90;1.00;;;;;;4989298;28;20510;-58
2023/05/20 07:01:17;;;;;;;7.93;7.10;;;14.10;1.00;;;;;;4986135;28;20038;-59
2023/05/20 07:03:43;;;;;;;8.40;7.43;;;14.40;1.00;;;;;;4985042;28;20057;-58
2023/05/20 07:06:09;;;;;;;9.38;7.53;;;14.70;1.00;;;;;;4988177;28;20404;-59
2023/05/20 07:08:35;;;;;;;7.10;6.30;;;15.00;1.00;;;;;;4984948;28;20453;-59
2023/05/20 07:11:00;;;;;;;12.98;5.22;;;15.30;1.00;;;;;;4984305;28;20133;-59
2023/05/20 07:13:26;;;;;;;7.93;4.53;;;15.70;1.00;;;;;;4989032;28;20492;-59
2023/05/20 07:15:51;;;;;;;5.72;3.20;;;16.00;1.00;;;;;;4988886;28;20423;-59
2023/05/20 07:18:18;;;;;;;5.93;3.60;;;16.10;99.90;;;;;;4986033;28;20034;-59
2023/05/20 07:20:43;;;;;;;4.82;3.28;;;16.30;99.90;;;;;;4988297;28;20060;-59
2023/05/20 07:23:09;;;;;;;4.28;3.13;;;16.60;99.90;;;;;;4992185;28;20121;-59
2023/05/20 07:25:35;;;;;;;7.13;3.00;;;16.80;99.90;;;;;;4993370;28;20113;-59
2023/05/20 07:28:00;;;;;;;3.85;2.70;;;16.90;99.90;;;;;;4977511;28;20046;-59
2023/05/20 07:30:26;;;;;;;6.13;2.50;;;16.90;99.90;;;;;;4990190;28;20077;-59
2023/05/20 07:32:52;;;;;;;7.13;2.72;;;17.00;99.90;;;;;;4990615;28;20677;-59
2023/05/20 07:35:18;;;;;;;5.63;2.65;;;17.00;65.20;;;;;;4991715;28;20113;-59
2023/05/20 07:37:43;;;;;;;4.15;2.58;;;17.10;48.50;;;;;;4991730;28;20026;-59
2023/05/20 07:40:09;;;;;;;5.57;2.70;;;17.10;31.40;;;;;;4991611;28;20503;-59
2023/05/20 07:42:35;;;;;;;6.82;2.97;;;17.20;29.70;;;;;;4991193;28;20038;-59
2023/05/20 07:45:03;;;;;;;6.57;2.80;;;17.40;21.80;;;;;;4992159;28;20871;-59
2023/05/20 07:47:30;;;;;;;6.60;3.40;;;17.50;20.90;;;;;;4990235;28;20112;-59
2023/05/20 07:49:56;;;;;;;5.25;3.08;;;17.40;5.00;;;;;;4984429;28;20654;-59
2023/05/20 07:52:21;;;;;;;6.60;3.40;;;17.50;1.00;;;;;;4990334;28;20038;-59
2023/05/20 07:54:47;;;;;;;5.55;2.90;;;17.60;3.90;;;;;;4989347;28;20046;-59
2023/05/20 07:57:12;;;;;;;6.32;3.42;;;17.60;1.00;;;;;;4988857;28;20114;-59
2023/05/20 07:59:38;;;;;;;6.85;2.95;;;17.80;1.00;;;;;;4991620;28;20424;-59
2023/05/20 08:02:04;;;;;;;6.28;3.47;;;17.90;1.00;;;;;;4992799;28;20489;-59
2023/05/20 08:04:29;;;;;;;6.30;2.67;;;17.90;1.00;;;;;;4992452;28;20038;-60
2023/05/20 08:06:55;;;;;;;4.35;2.08;;;17.80;1.00;;;;;;4991783;28;20787;-59
2023/05/20 08:09:21;;;;;;;5.72;2.50;;;18.30;1.00;;;;;;4990622;28;20479;-59
2023/05/20 08:11:46;;;;;;;7.80;2.95;;;17.90;1.00;;;;;;4990387;28;20408;-60
2023/05/20 08:14:12;;;;;;;5.88;2.75;;;18.20;1.00;;;;;;4990412;28;20038;-60
2023/05/20 08:16:38;;;;;;;4.07;2.28;;;18.00;1.00;;;;;;4988752;28;20049;-60
2023/05/20 08:19:03;;;;;;;5.07;2.38;;;18.10;1.00;;;;;;4986831;28;20096;-60
2023/05/20 08:21:29;;;;;;;7.82;2.33;;;18.10;1.00;;;;;;4985944;28;20046;-60
2023/05/20 08:23:54;;;;;;;5.22;2.40;;;18.10;1.00;;;;;;4987984;28;20039;-60
2023/05/20 08:26:20;;;;;;;7.43;2.58;;;18.30;1.00;;;;;;4988403;28;20057;-59
2023/05/20 08:28:47;;;;;;;5.68;2.38;;;18.40;1.00;;;;;;4989512;28;20056;-59
2023/05/20 08:31:13;;;;;;;8.30;2.90;;;18.40;1.00;;;;;;4992737;28;20088;-60
2023/05/20 08:33:39;;;;;;;5.88;2.47;;;18.50;1.00;;;;;;4991461;28;20125;-60
2023/05/20 08:36:07;;;;;;;10.77;2.65;;;18.60;1.00;;;;;;4988237;28;20405;-60
2023/05/20 08:38:32;;;;;;;8.80;2.55;;;18.60;1.00;;;;;;4981612;28;20042;-59
2023/05/20 08:40:58;;;;;;;6.03;2.75;;;18.70;1.00;;;;;;4990452;28;20049;-59
2023/05/20 08:43:24;;;;;;;6.63;2.88;;;18.70;1.00;;;;;;4990097;28;20042;-60
2023/05/20 08:45:53;;;;;;;9.07;2.70;;;18.60;1.00;;;;;;4986457;28;20054;-59
2023/05/20 08:48:22;;;;;;;4.85;2.30;;;18.70;1.00;;;;;;4985334;28;20463;-60
2023/05/20 08:50:51;;;;;;;8.13;2.53;;;18.80;1.00;;;;;;4988228;28;20050;-59
2023/05/20 08:53:19;;;;;;;8.25;2.40;;;18.90;1.00;;;;;;4984124;28;20050;-60
2023/05/20 08:55:59;;;;;;;4.85;2.00;;;19.00;1.00;;;;;;4986952;28;20046;-60
2023/05/20 08:58:24;;;;;;;7.60;2.22;;;19.10;1.00;;;;;;4990953;28;20034;-60
2023/05/20 09:00:51;;;;;;;5.03;2.00;;;19.20;1.00;;;;;;4988679;28;20069;-60
2023/05/20 09:03:19;;;;;;;7.32;2.20;;;19.20;1.00;;;;;;4988520;28;20038;-60
2023/05/20 09:05:45;;;;;;;6.20;2.58;;;19.10;1.00;;;;;;4987921;28;20034;-60
2023/05/20 09:08:11;;;;;;;8.30;2.28;;;19.20;1.00;;;;;;4987250;28;20504;-60
2023/05/20 09:10:41;;;;;;;8.75;2.45;;;19.20;1.00;;;;;;4986183;28;20120;-60
2023/05/20 09:13:08;;;;;;;4.85;2.30;;;19.20;1.00;;;;;;4987026;28;20133;-60
2023/05/20 09:15:34;;;;;;;7.15;2.35;;;19.30;1.00;;;;;;4991471;28;20039;-60
2023/05/20 09:18:04;;;;;;;7.80;2.50;;;19.30;99.90;;;;;;4991299;28;20038;-61
2023/05/20 09:20:33;;;;;;;5.28;2.33;;;19.30;99.90;;;;;;4989889;28;20074;-60
2023/05/20 09:23:06;;;;;;;9.63;2.35;;;19.40;99.90;;;;;;4990317;28;20109;-60
2023/05/20 09:25:32;;;;;;;4.70;2.08;;;19.60;1.00;;;;;;4990501;28;20061;-60
2023/05/20 09:27:58;;;;;;;7.68;2.42;;;19.40;99.90;;;;;;4988597;28;20499;-60
2023/05/20 09:30:24;;;;;;;4.30;2.22;;;19.50;99.90;;;;;;4989988;28;20038;-60
2023/05/20 09:32:54;;;;;;;5.53;2.40;;;19.50;1.00;;;;;;4991720;28;20749;-60
2023/05/20 09:35:22;;;;;;;8.25;2.40;;;19.60;1.00;;;;;;4991357;28;20042;-60
2023/05/20 09:37:51;;;;;;;4.35;2.00;;;19.50;99.90;;;;;;4990587;28;20050;-61
2023/05/20 09:40:20;;;;;;;5.57;2.30;;;19.40;99.90;;;;;;4991124;28;20045;-60
2023/05/20 09:43:05;;;;;;;6.95;2.10;;;19.30;99.90;;;;;;4990740;28;20042;-60
2023/05/20 09:45:30;;;;;;;6.38;2.20;;;19.30;99.90;;;;;;4990828;28;20042;-60
2023/05/20 09:47:56;;;;;;;5.28;2.08;;;19.50;99.90;;;;;;4989717;28;20062;-60
2023/05/20 09:50:23;;;;;;;5.70;2.10;;;19.30;99.90;;;;;;4990729;28;20104;-60
2023/05/20 09:52:51;;;;;;;5.40;2.30;;;19.30;99.90;;;;;;4990162;28;20038;-60
2023/05/20 09:55:18;;;;;;;6.75;2.28;;;19.30;99.90;;;;;;4989361;28;20042;-60
2023/05/20 09:57:45;;;;;;;7.63;2.70;;;19.40;99.90;;;;;;4988467;28;20038;-60
2023/05/20 10:00:13;;;;;;;5.25;2.40;;;19.40;99.90;;;;;;4990925;28;20042;-60
2023/05/20 10:02:58;;;;;;;8.57;3.03;;;19.30;99.90;;;;;;4990819;28;20556;-60
2023/05/20 10:05:32;;;;;;;6.63;2.63;;;19.20;99.90;;;;;;4990933;28;20046;-60
2023/05/20 10:08:16;;;;;;;10.23;3.15;;;19.20;99.90;;;;;;4989215;28;20500;-60
2023/05/20 10:10:49;;;;;;;5.82;2.38;;;19.10;99.90;;;;;;4987364;28;20048;-60
2023/05/20 10:13:44;;;;;;;7.68;2.90;;;18.90;99.90;;;;;;4988032;28;20045;-60
2023/05/20 10:16:38;;;;;;;9.82;3.03;;;19.00;1.00;;;;;;5004925;28;20552;-60
2023/05/20 10:19:24;;;;;;;10.57;2.70;;;19.00;99.90;;;;;;4983583;28;20046;-60
2023/05/20 10:22:03;;;;;;;7.00;2.70;;;18.90;99.90;;;;;;4980688;28;20046;-60
2023/05/20 10:24:31;;;;;;;7.10;2.38;;;18.90;99.90;;;;;;4989306;28;20085;-60
2023/05/20 10:27:00;;;;;;;6.53;2.47;;;19.00;99.90;;;;;;4987558;28;20096;-60
2023/05/20 10:29:26;;;;;;;11.65;3.15;;;18.90;99.90;;;;;;4986797;28;20106;-60
2023/05/20 10:31:52;;;;;;;14.20;2.97;;;19.00;1.00;;;;;;4986674;28;20073;-60
2023/05/20 10:34:19;;;;;;;8.25;3.00;;;19.30;1.00;;;;;;4990158;28;20045;-61
2023/05/20 10:37:05;;;;;;;9.57;3.22;;;18.80;1.00;;;;;;4990425;28;20050;-60
2023/05/20 10:39:34;;;;;;;3.88;2.38;;;18.90;1.00;;;;;;4987642;28;20058;-60
2023/05/20 10:42:10;;;;;;;8.30;2.80;;;18.90;1.00;;;;;;4988258;28;20041;-60
2023/05/20 10:44:44;;;;;;;7.70;2.70;;;18.80;1.00;;;;;;4987981;28;20062;-60
2023/05/20 10:47:11;;;;;;;4.47;2.25;;;18.90;1.00;;;;;;4988789;28;20089;-61
2023/05/20 10:49:47;;;;;;;10.20;3.15;;;18.80;1.00;;;;;;4990185;28;20053;-60
2023/05/20 10:52:13;;;;;;;12.63;2.80;;;18.70;1.00;;;;;;4987864;28;20073;-60
2023/05/20 10:54:44;;;;;;;11.80;3.00;;;18.70;1.00;;;;;;4988667;28;20381;-60
2023/05/20 10:57:10;;;;;;;6.45;2.50;;;18.70;1.00;;;;;;4986319;28;20145;-59
2023/05/20 10:59:36;;;;;;;24.50;2.80;;;18.60;1.00;;;;;;4973974;28;20515;-59
2023/05/20 11:02:02;;;;;;;13.18;2.92;;;18.50;1.00;;;;;;4986660;28;20038;-59
2023/05/20 11:04:29;;;;;;;8.95;3.10;;;18.50;1.00;;;;;;4986366;28;20038;-59
2023/05/20 11:06:54;;;;;;;7.82;2.92;;;18.30;1.00;;;;;;4989969;28;20038;-59
2023/05/20 11:09:20;;;;;;;9.38;3.05;;;18.50;1.00;;;;;;4986712;28;20053;-59
2023/05/20 11:11:46;;;;;;;8.18;3.03;;;18.60;1.00;;;;;;4985979;28;20045;-59
2023/05/20 11:14:13;;;;;;;7.22;3.20;;;18.70;1.00;;;;;;4987388;28;20495;-59
2023/05/20 11:16:40;;;;;;;9.75;3.20;;;18.70;1.00;;;;;;4989048;28;20480;-59
2023/05/20 11:19:07;;;;;;;9.95;3.35;;;18.70;1.00;;;;;;4987702;28;20046;-60
2023/05/20 11:21:33;;;;;;;7.97;3.05;;;18.60;1.00;;;;;;4989470;28;20528;-59
2023/05/20 11:23:59;;;;;;;8.07;3.10;;;18.70;1.00;;;;;;4985954;28;20121;-59
2023/05/20 11:26:24;;;;;;;10.90;3.53;;;18.70;1.00;;;;;;4984209;28;20083;-59
2023/05/20 11:28:50;;;;;;;9.18;3.38;;;18.60;1.00;;;;;;4984390;28;20158;-60
2023/05/20 11:31:17;;;;;;;11.82;3.45;;;18.50;1.00;;;;;;4988195;28;20046;-59
2023/05/20 11:33:43;;;;;;;10.35;3.45;;;18.50;1.00;;;;;;4989844;28;20043;-60
2023/05/20 11:36:09;;;;;;;12.13;3.50;;;18.60;1.00;;;;;;4986554;28;20034;-60
2023/05/20 11:38:35;;;;;;;12.82;3.75;;;18.60;1.00;;;;;;4988094;28;20432;-59
2023/05/20 11:41:01;;;;;;;11.80;4.25;;;18.70;1.00;;;;;;4989846;28;20038;-60
2023/05/20 11:43:26;;;;;;;10.55;3.30;;;18.70;1.00;;;;;;4987523;28;20111;-60
2023/05/20 11:45:59;;;;;;;10.88;3.33;;;18.80;1.00;;;;;;4987103;28;20096;-60
2023/05/20 11:48:25;;;;;;;10.20;3.30;;;18.80;1.00;;;;;;4987905;28;20412;-59
2023/05/20 11:50:54;;;;;;;13.77;3.38;;;18.90;1.00;;;;;;4988354;28;20038;-60
2023/05/20 11:53:21;;;;;;;9.57;3.65;;;18.80;1.00;;;;;;4988904;28;20100;-60
2023/05/20 11:55:54;;;;;;;11.02;3.70;;;18.60;1.00;;;;;;4985901;28;20050;-60
2023/05/20 11:58:21;;;;;;;15.65;3.80;;;18.50;1.00;;;;;;4983014;28;20089;-64
2023/05/20 12:00:48;;;;;;;8.63;3.20;;;18.50;1.00;;;;;;4987562;28;20073;-64
2023/05/20 12:03:14;;;;;;;10.02;3.60;;;18.50;1.00;;;;;;4989291;28;20093;-64
2023/05/20 12:05:40;;;;;;;11.40;3.60;;;18.40;1.00;;;;;;4986777;28;20054;-64
2023/05/20 12:08:06;;;;;;;10.40;3.38;;;18.50;1.00;;;;;;4988431;28;20504;-64
2023/05/20 12:10:32;;;;;;;9.65;3.65;;;18.40;1.00;;;;;;4991905;28;20038;-64
2023/05/20 12:12:58;;;;;;;11.13;3.58;;;18.40;1.00;;;;;;4990638;28;20053;-64
2023/05/20 12:15:24;;;;;;;11.43;3.53;;;18.40;1.00;;;;;;4990635;28;20050;-64
2023/05/20 12:17:52;;;;;;;11.85;3.83;;;18.20;1.00;;;;;;4991648;28;20389;-64
2023/05/20 12:20:22;;;;;;;11.52;3.25;;;18.30;1.00;;;;;;4974398;28;20042;-64
2023/05/20 12:22:48;;;;;;;12.02;3.17;;;18.30;1.00;;;;;;4981447;28;20732;-65
2023/05/20 12:25:16;;;;;;;10.27;3.25;;;18.30;1.00;;;;;;4990458;28;20132;-64
2023/05/20 12:27:42;;;;;;;10.18;3.47;;;18.50;1.00;;;;;;4991942;28;20046;-65
2023/05/20 12:30:09;;;;;;;11.23;3.60;;;18.50;1.00;;;;;;4991016;28;20046;-64
2023/05/20 12:32:36;;;;;;;8.80;3.30;;;18.40;1.00;;;;;;4989073;28;20069;-65
2023/05/20 12:35:02;;;;;;;8.93;3.15;;;18.30;1.00;;;;;;4991269;28;20658;-64
2023/05/20 12:37:28;;;;;;;11.65;4.03;;;18.20;1.00;;;;;;4991948;28;20066;-64
2023/05/20 12:39:54;;;;;;;7.50;3.03;;;18.10;1.00;;;;;;4990340;28;20444;-65